sensor_id;sensor_type;location;lat;lon;timestamp;pressure;altitude;pressure_sealevel;temperature;humidity
78894;BME280;68282;42.698;23.350;2023-05-07T00:00:35;95673.44;;;14.06;59.00
78894;BME280;68282;42.698;23.350;2023-05-07T00:03:01;95680.22;;;14.03;59.11
78894;BME280;68282;42.698;23.350;2023-05-07T00:05:26;95683.72;;;13.99;58.91
78894;BME280;68282;42.698;23.350;2023-05-07T00:07:52;95690.28;;;13.98;59.11
78894;BME280;68282;42.698;23.350;2023-05-07T00:10:20;95684.47;;;13.94;59.05
78894;BME280;68282;42.698;23.350;2023-05-07T00:12:45;95686.13;;;13.95;59.34
78894;BME280;68282;42.698;23.350;2023-05-07T00:15:11;95692.78;;;13.99;58.94
78894;BME280;68282;42.698;23.350;2023-05-07T00:17:37;95685.88;;;13.97;58.84
78894;BME280;68282;42.698;23.350;2023-05-07T00:20:03;95689.47;;;13.97;59.29
78894;BME280;68282;42.698;23.350;2023-05-07T00:22:30;95674.13;;;13.96;59.09
78894;BME280;68282;42.698;23.350;2023-05-07T00:24:55;95679.50;;;13.91;59.12
78894;BME280;68282;42.698;23.350;2023-05-07T00:27:21;95671.25;;;13.86;59.62
78894;BME280;68282;42.698;23.350;2023-05-07T00:29:47;95677.28;;;13.88;59.65
78894;BME280;68282;42.698;23.350;2023-05-07T00:32:12;95675.06;;;13.85;59.81
78894;BME280;68282;42.698;23.350;2023-05-07T00:34:38;95679.69;;;13.84;59.70
78894;BME280;68282;42.698;23.350;2023-05-07T00:37:04;95677.22;;;13.83;59.47
78894;BME280;68282;42.698;23.350;2023-05-07T00:39:30;95680.19;;;13.81;59.49
78894;BME280;68282;42.698;23.350;2023-05-07T00:41:55;95677.88;;;13.73;59.54
78894;BME280;68282;42.698;23.350;2023-05-07T00:44:21;95684.44;;;13.72;59.53
78894;BME280;68282;42.698;23.350;2023-05-07T00:46:46;95682.69;;;13.66;59.53
78894;BME280;68282;42.698;23.350;2023-05-07T00:49:15;95681.88;;;13.65;59.13
78894;BME280;68282;42.698;23.350;2023-05-07T00:51:41;95682.03;;;13.58;59.32
78894;BME280;68282;42.698;23.350;2023-05-07T00:54:07;95687.50;;;13.58;59.20
78894;BME280;68282;42.698;23.350;2023-05-07T00:56:32;95683.13;;;13.57;59.28
78894;BME280;68282;42.698;23.350;2023-05-07T00:58:58;95687.94;;;13.50;59.53
78894;BME280;68282;42.698;23.350;2023-05-07T01:01:24;95685.41;;;13.49;59.40
78894;BME280;68282;42.698;23.350;2023-05-07T01:03:49;95685.41;;;13.49;59.55
78894;BME280;68282;42.698;23.350;2023-05-07T01:06:15;95687.56;;;13.47;59.76
78894;BME280;68282;42.698;23.350;2023-05-07T01:08:42;95686.75;;;13.46;59.38
78894;BME280;68282;42.698;23.350;2023-05-07T01:11:08;95696.59;;;13.47;59.21
78894;BME280;68282;42.698;23.350;2023-05-07T01:13:34;95685.91;;;13.45;59.48
78894;BME280;68282;42.698;23.350;2023-05-07T01:16:00;95680.97;;;13.42;59.36
78894;BME280;68282;42.698;23.350;2023-05-07T01:18:26;95682.03;;;13.41;59.33
78894;BME280;68282;42.698;23.350;2023-05-07T01:20:52;95680.84;;;13.37;59.01
78894;BME280;68282;42.698;23.350;2023-05-07T01:23:18;95683.25;;;13.34;59.39
78894;BME280;68282;42.698;23.350;2023-05-07T01:25:51;95688.13;;;13.32;59.41
78894;BME280;68282;42.698;23.350;2023-05-07T01:28:16;95687.28;;;13.31;59.33
78894;BME280;68282;42.698;23.350;2023-05-07T01:30:45;95690.84;;;13.32;59.17
78894;BME280;68282;42.698;23.350;2023-05-07T01:33:14;95687.78;;;13.28;58.90
78894;BME280;68282;42.698;23.350;2023-05-07T01:35:43;95685.53;;;13.25;59.51
78894;BME280;68282;42.698;23.350;2023-05-07T01:38:11;95681.41;;;13.22;59.30
78894;BME280;68282;42.698;23.350;2023-05-07T01:40:37;95690.06;;;13.19;59.01
78894;BME280;68282;42.698;23.350;2023-05-07T01:43:03;95684.06;;;13.17;59.16
78894;BME280;68282;42.698;23.350;2023-05-07T01:45:30;95684.28;;;13.15;59.09
78894;BME280;68282;42.698;23.350;2023-05-07T01:47:57;95680.97;;;13.13;58.98
78894;BME280;68282;42.698;23.350;2023-05-07T01:50:23;95674.69;;;13.13;58.96
78894;BME280;68282;42.698;23.350;2023-05-07T01:52:50;95672.22;;;13.11;58.87
78894;BME280;68282;42.698;23.350;2023-05-07T01:55:16;95661.78;;;13.08;58.84
78894;BME280;68282;42.698;23.350;2023-05-07T01:57:41;95663.44;;;13.09;58.84
78894;BME280;68282;42.698;23.350;2023-05-07T02:00:07;95661.03;;;13.13;58.74
78894;BME280;68282;42.698;23.350;2023-05-07T02:02:34;95657.56;;;13.18;58.53
78894;BME280;68282;42.698;23.350;2023-05-07T02:05:00;95664.69;;;13.19;58.13
78894;BME280;68282;42.698;23.350;2023-05-07T02:07:26;95659.72;;;13.15;58.03
78894;BME280;68282;42.698;23.350;2023-05-07T02:09:51;95651.78;;;13.14;58.44
78894;BME280;68282;42.698;23.350;2023-05-07T02:12:17;95650.00;;;13.08;58.32
78894;BME280;68282;42.698;23.350;2023-05-07T02:14:42;95645.13;;;13.10;58.29
78894;BME280;68282;42.698;23.350;2023-05-07T02:17:08;95640.69;;;13.04;58.18
78894;BME280;68282;42.698;23.350;2023-05-07T02:19:33;95634.63;;;13.02;58.40
78894;BME280;68282;42.698;23.350;2023-05-07T02:21:59;95635.69;;;13.01;58.53
78894;BME280;68282;42.698;23.350;2023-05-07T02:24:24;95643.06;;;13.00;58.28
78894;BME280;68282;42.698;23.350;2023-05-07T02:26:50;95641.97;;;13.01;57.93
78894;BME280;68282;42.698;23.350;2023-05-07T02:29:15;95650.34;;;12.94;58.44
78894;BME280;68282;42.698;23.350;2023-05-07T02:31:41;95647.34;;;12.96;58.60
78894;BME280;68282;42.698;23.350;2023-05-07T02:34:06;95646.19;;;12.92;58.66
78894;BME280;68282;42.698;23.350;2023-05-07T02:36:32;95637.75;;;12.93;58.60
78894;BME280;68282;42.698;23.350;2023-05-07T02:38:57;95640.72;;;12.92;59.05
78894;BME280;68282;42.698;23.350;2023-05-07T02:41:22;95647.84;;;12.93;59.41
78894;BME280;68282;42.698;23.350;2023-05-07T02:43:48;95640.72;;;12.92;59.64
78894;BME280;68282;42.698;23.350;2023-05-07T02:46:13;95640.50;;;12.93;59.93
78894;BME280;68282;42.698;23.350;2023-05-07T02:48:39;95635.84;;;12.94;59.85
78894;BME280;68282;42.698;23.350;2023-05-07T02:51:04;95648.16;;;12.96;60.08
78894;BME280;68282;42.698;23.350;2023-05-07T02:53:31;95640.25;;;12.95;60.20
78894;BME280;68282;42.698;23.350;2023-05-07T02:55:58;95641.16;;;13.01;60.53
78894;BME280;68282;42.698;23.350;2023-05-07T02:58:24;95637.03;;;12.98;60.69
78894;BME280;68282;42.698;23.350;2023-05-07T03:00:49;95650.75;;;13.03;60.42
78894;BME280;68282;42.698;23.350;2023-05-07T03:03:15;95648.59;;;13.05;60.67
78894;BME280;68282;42.698;23.350;2023-05-07T03:05:41;95651.34;;;13.05;60.91
78894;BME280;68282;42.698;23.350;2023-05-07T03:08:07;95652.41;;;13.04;60.79
78894;BME280;68282;42.698;23.350;2023-05-07T03:10:32;95660.59;;;13.04;60.82
78894;BME280;68282;42.698;23.350;2023-05-07T03:12:58;95654.06;;;13.05;60.84
78894;BME280;68282;42.698;23.350;2023-05-07T03:15:23;95666.66;;;13.06;61.12
78894;BME280;68282;42.698;23.350;2023-05-07T03:17:49;95664.19;;;13.05;61.38
78894;BME280;68282;42.698;23.350;2023-05-07T03:20:14;95667.47;;;13.07;61.06
78894;BME280;68282;42.698;23.350;2023-05-07T03:22:40;95668.31;;;13.07;61.29
78894;BME280;68282;42.698;23.350;2023-05-07T03:25:06;95667.47;;;13.07;61.32
78894;BME280;68282;42.698;23.350;2023-05-07T03:27:31;95674.59;;;13.08;61.14
78894;BME280;68282;42.698;23.350;2023-05-07T03:29:57;95674.34;;;13.09;61.31
78894;BME280;68282;42.698;23.350;2023-05-07T03:32:22;95681.47;;;13.10;60.97
78894;BME280;68282;42.698;23.350;2023-05-07T03:34:48;95677.91;;;13.10;61.26
78894;BME280;68282;42.698;23.350;2023-05-07T03:37:13;95676.03;;;13.10;61.49
78894;BME280;68282;42.698;23.350;2023-05-07T03:39:38;95679.81;;;13.09;61.43
78894;BME280;68282;42.698;23.350;2023-05-07T03:42:04;95681.47;;;13.10;61.18
78894;BME280;68282;42.698;23.350;2023-05-07T03:44:29;95673.66;;;13.02;61.32
78894;BME280;68282;42.698;23.350;2023-05-07T03:46:55;95684.09;;;13.05;61.51
78894;BME280;68282;42.698;23.350;2023-05-07T03:49:21;95687.44;;;13.07;61.55
78894;BME280;68282;42.698;23.350;2023-05-07T03:51:46;95688.25;;;13.08;61.42
78894;BME280;68282;42.698;23.350;2023-05-07T03:54:11;95681.13;;;13.07;61.79
78894;BME280;68282;42.698;23.350;2023-05-07T03:56:37;95685.19;;;13.04;61.76
78894;BME280;68282;42.698;23.350;2023-05-07T03:59:02;95698.34;;;13.07;61.77
78894;BME280;68282;42.698;23.350;2023-05-07T04:01:28;95690.41;;;13.06;61.94
78894;BME280;68282;42.698;23.350;2023-05-07T04:03:53;95702.28;;;12.99;61.63
78894;BME280;68282;42.698;23.350;2023-05-07T04:06:19;95694.66;;;12.84;61.33
78894;BME280;68282;42.698;23.350;2023-05-07T04:08:44;95706.16;;;12.87;61.18
78894;BME280;68282;42.698;23.350;2023-05-07T04:11:09;95705.22;;;12.81;60.65
78894;BME280;68282;42.698;23.350;2023-05-07T04:13:35;95715.44;;;12.74;60.90
78894;BME280;68282;42.698;23.350;2023-05-07T04:16:06;95724.13;;;12.71;60.65
78894;BME280;68282;42.698;23.350;2023-05-07T04:18:31;95725.22;;;12.58;60.74
78894;BME280;68282;42.698;23.350;2023-05-07T04:20:57;95726.84;;;12.30;61.42
78894;BME280;68282;42.698;23.350;2023-05-07T04:23:22;95732.50;;;12.40;61.29
78894;BME280;68282;42.698;23.350;2023-05-07T04:25:48;95729.41;;;12.48;61.25
78894;BME280;68282;42.698;23.350;2023-05-07T04:28:13;95737.25;;;12.57;60.95
78894;BME280;68282;42.698;23.350;2023-05-07T04:30:39;95736.34;;;12.68;60.64
78894;BME280;68282;42.698;23.350;2023-05-07T04:33:04;95739.31;;;12.78;60.70
78894;BME280;68282;42.698;23.350;2023-05-07T04:35:32;95745.19;;;12.87;60.51
78894;BME280;68282;42.698;23.350;2023-05-07T04:37:57;95746.97;;;12.93;60.37
78894;BME280;68282;42.698;23.350;2023-05-07T04:40:22;95748.97;;;12.98;59.71
78894;BME280;68282;42.698;23.350;2023-05-07T04:42:48;95747.69;;;12.89;60.08
78894;BME280;68282;42.698;23.350;2023-05-07T04:45:13;95744.19;;;12.76;60.63
78894;BME280;68282;42.698;23.350;2023-05-07T04:47:39;95747.69;;;12.89;60.53
78894;BME280;68282;42.698;23.350;2023-05-07T04:50:06;95750.72;;;13.04;60.49
78894;BME280;68282;42.698;23.350;2023-05-07T04:52:31;95748.69;;;13.11;60.36
78894;BME280;68282;42.698;23.350;2023-05-07T04:54:59;95742.56;;;13.21;60.09
78894;BME280;68282;42.698;23.350;2023-05-07T04:57:24;95745.72;;;13.30;59.93
78894;BME280;68282;42.698;23.350;2023-05-07T04:59:50;95740.88;;;13.32;60.14
78894;BME280;68282;42.698;23.350;2023-05-07T05:02:15;95742.16;;;13.41;59.74
78894;BME280;68282;42.698;23.350;2023-05-07T05:04:40;95742.81;;;13.49;59.96
78894;BME280;68282;42.698;23.350;2023-05-07T05:07:06;95741.25;;;13.53;59.45
78894;BME280;68282;42.698;23.350;2023-05-07T05:09:31;95733.13;;;13.58;59.24
78894;BME280;68282;42.698;23.350;2023-05-07T05:11:57;95732.47;;;13.68;59.13
78894;BME280;68282;42.698;23.350;2023-05-07T05:14:22;95735.28;;;13.73;59.22
78894;BME280;68282;42.698;23.350;2023-05-07T05:16:47;95739.34;;;13.70;59.24
78894;BME280;68282;42.698;23.350;2023-05-07T05:19:13;95735.84;;;13.75;59.16
78894;BME280;68282;42.698;23.350;2023-05-07T05:21:38;95736.88;;;13.86;59.20
78894;BME280;68282;42.698;23.350;2023-05-07T05:24:04;95739.34;;;13.87;59.33
78894;BME280;68282;42.698;23.350;2023-05-07T05:26:29;95736.13;;;13.90;59.16
78894;BME280;68282;42.698;23.350;2023-05-07T05:28:55;95736.69;;;13.93;59.76
78894;BME280;68282;42.698;23.350;2023-05-07T05:31:20;95742.56;;;14.01;59.50
78894;BME280;68282;42.698;23.350;2023-05-07T05:33:46;95745.66;;;14.05;59.62
78894;BME280;68282;42.698;23.350;2023-05-07T05:36:11;95738.91;;;14.13;59.83
78894;BME280;68282;42.698;23.350;2023-05-07T05:38:38;95741.13;;;14.16;59.52
78894;BME280;68282;42.698;23.350;2023-05-07T05:41:04;95743.13;;;14.20;59.37
78894;BME280;68282;42.698;23.350;2023-05-07T05:43:30;95746.75;;;14.26;59.86
78894;BME280;68282;42.698;23.350;2023-05-07T05:45:56;95749.31;;;14.33;59.73
78894;BME280;68282;42.698;23.350;2023-05-07T05:48:22;95744.16;;;14.36;59.23
78894;BME280;68282;42.698;23.350;2023-05-07T05:50:48;95747.56;;;14.44;59.43
78894;BME280;68282;42.698;23.350;2023-05-07T05:53:13;95739.28;;;14.38;59.94
78894;BME280;68282;42.698;23.350;2023-05-07T05:55:39;95743.72;;;14.45;59.70
78894;BME280;68282;42.698;23.350;2023-05-07T05:58:04;95740.50;;;14.48;59.46
78894;BME280;68282;42.698;23.350;2023-05-07T06:00:30;95734.69;;;14.44;59.71
78894;BME280;68282;42.698;23.350;2023-05-07T06:02:55;95750.66;;;14.30;59.79
78894;BME280;68282;42.698;23.350;2023-05-07T06:05:21;95747.22;;;14.40;60.07
78894;BME280;68282;42.698;23.350;2023-05-07T06:07:46;95746.47;;;14.45;59.85
78894;BME280;68282;42.698;23.350;2023-05-07T06:10:11;95744.06;;;14.48;59.75
78894;BME280;68282;42.698;23.350;2023-05-07T06:12:37;95744.75;;;14.38;59.65
78894;BME280;68282;42.698;23.350;2023-05-07T06:15:03;95737.69;;;14.43;60.02
78894;BME280;68282;42.698;23.350;2023-05-07T06:17:28;95745.50;;;14.56;59.16
78894;BME280;68282;42.698;23.350;2023-05-07T06:19:54;95740.44;;;14.65;59.43
78894;BME280;68282;42.698;23.350;2023-05-07T06:22:19;95740.84;;;14.74;59.63
78894;BME280;68282;42.698;23.350;2023-05-07T06:24:44;95734.34;;;14.80;59.34
78894;BME280;68282;42.698;23.350;2023-05-07T06:27:10;95725.13;;;14.86;58.99
78894;BME280;68282;42.698;23.350;2023-05-07T06:29:35;95737.28;;;14.95;59.61
78894;BME280;68282;42.698;23.350;2023-05-07T06:32:11;95732.69;;;15.01;59.66
78894;BME280;68282;42.698;23.350;2023-05-07T06:34:38;95725.09;;;15.08;59.08
78894;BME280;68282;42.698;23.350;2023-05-07T06:37:04;95717.53;;;15.21;59.12
78894;BME280;68282;42.698;23.350;2023-05-07T06:39:29;95711.34;;;15.30;59.31
78894;BME280;68282;42.698;23.350;2023-05-07T06:41:55;95723.72;;;15.38;58.63
78894;BME280;68282;42.698;23.350;2023-05-07T06:44:20;95712.53;;;15.40;58.12
78894;BME280;68282;42.698;23.350;2023-05-07T06:46:46;95710.31;;;15.37;58.00
78894;BME280;68282;42.698;23.350;2023-05-07T06:49:14;95709.72;;;15.35;59.11
78894;BME280;68282;42.698;23.350;2023-05-07T06:51:40;95708.16;;;15.44;58.19
78894;BME280;68282;42.698;23.350;2023-05-07T06:54:06;95700.28;;;15.48;58.00
78894;BME280;68282;42.698;23.350;2023-05-07T06:56:32;95695.13;;;15.56;57.67
78894;BME280;68282;42.698;23.350;2023-05-07T06:58:57;95702.56;;;15.61;57.68
78894;BME280;68282;42.698;23.350;2023-05-07T07:01:23;95701.78;;;15.66;57.41
78894;BME280;68282;42.698;23.350;2023-05-07T07:03:49;95696.84;;;15.63;57.74
78894;BME280;68282;42.698;23.350;2023-05-07T07:06:14;95700.19;;;15.70;56.99
78894;BME280;68282;42.698;23.350;2023-05-07T07:08:42;95706.22;;;15.72;57.45
78894;BME280;68282;42.698;23.350;2023-05-07T07:11:08;95699.13;;;15.76;57.00
78894;BME280;68282;42.698;23.350;2023-05-07T07:13:33;95697.31;;;15.87;57.83
78894;BME280;68282;42.698;23.350;2023-05-07T07:15:59;95698.97;;;15.88;57.27
78894;BME280;68282;42.698;23.350;2023-05-07T07:18:25;95695.78;;;16.01;56.89
78894;BME280;68282;42.698;23.350;2023-05-07T07:20:50;95691.38;;;16.00;56.67
78894;BME280;68282;42.698;23.350;2023-05-07T07:23:16;95684.00;;;16.06;56.80
78894;BME280;68282;42.698;23.350;2023-05-07T07:25:41;95682.94;;;16.12;56.80
78894;BME280;68282;42.698;23.350;2023-05-07T07:28:07;95685.22;;;16.20;56.87
78894;BME280;68282;42.698;23.350;2023-05-07T07:30:32;95691.78;;;16.19;56.09
78894;BME280;68282;42.698;23.350;2023-05-07T07:32:57;95686.31;;;16.25;56.49
78894;BME280;68282;42.698;23.350;2023-05-07T07:35:29;95689.78;;;16.10;55.90
78894;BME280;68282;42.698;23.350;2023-05-07T07:37:55;95690.34;;;16.12;56.22
78894;BME280;68282;42.698;23.350;2023-05-07T07:40:20;95692.25;;;16.06;55.21
78894;BME280;68282;42.698;23.350;2023-05-07T07:42:46;95703.44;;;15.99;55.41
78894;BME280;68282;42.698;23.350;2023-05-07T07:45:11;95692.81;;;16.13;55.77
78894;BME280;68282;42.698;23.350;2023-05-07T07:47:37;95691.22;;;16.22;56.71
78894;BME280;68282;42.698;23.350;2023-05-07T07:50:03;95692.66;;;16.30;56.38
78894;BME280;68282;42.698;23.350;2023-05-07T07:52:28;95701.13;;;16.23;53.68
78894;BME280;68282;42.698;23.350;2023-05-07T07:54:53;95694.03;;;16.33;53.55
78894;BME280;68282;42.698;23.350;2023-05-07T07:57:20;95702.59;;;16.42;53.85
78894;BME280;68282;42.698;23.350;2023-05-07T07:59:45;95700.44;;;16.49;54.30
78894;BME280;68282;42.698;23.350;2023-05-07T08:02:11;95692.50;;;16.52;53.71
78894;BME280;68282;42.698;23.350;2023-05-07T08:04:36;95690.53;;;16.43;53.67
78894;BME280;68282;42.698;23.350;2023-05-07T08:07:02;95687.50;;;16.44;52.98
78894;BME280;68282;42.698;23.350;2023-05-07T08:09:28;95688.34;;;16.45;53.14
78894;BME280;68282;42.698;23.350;2023-05-07T08:11:53;95687.50;;;16.39;53.31
78894;BME280;68282;42.698;23.350;2023-05-07T08:14:19;95687.53;;;16.54;52.91
78894;BME280;68282;42.698;23.350;2023-05-07T08:16:44;95688.72;;;16.69;51.87
78894;BME280;68282;42.698;23.350;2023-05-07T08:19:10;95683.28;;;16.84;52.83
78894;BME280;68282;42.698;23.350;2023-05-07T08:21:38;95678.66;;;16.95;53.06
78894;BME280;68282;42.698;23.350;2023-05-07T08:24:04;95680.63;;;17.10;54.12
78894;BME280;68282;42.698;23.350;2023-05-07T08:26:30;95677.91;;;17.21;53.59
78894;BME280;68282;42.698;23.350;2023-05-07T08:28:55;95674.06;;;17.32;52.80
78894;BME280;68282;42.698;23.350;2023-05-07T08:31:20;95672.16;;;17.43;52.61
78894;BME280;68282;42.698;23.350;2023-05-07T08:33:46;95665.31;;;17.51;52.36
78894;BME280;68282;42.698;23.350;2023-05-07T08:36:11;95662.00;;;17.59;52.22
78894;BME280;68282;42.698;23.350;2023-05-07T08:38:36;95663.38;;;17.67;51.70
78894;BME280;68282;42.698;23.350;2023-05-07T08:41:02;95667.22;;;17.66;50.94
78894;BME280;68282;42.698;23.350;2023-05-07T08:43:28;95663.09;;;17.68;51.39
78894;BME280;68282;42.698;23.350;2023-05-07T08:45:54;95663.38;;;17.67;50.66
78894;BME280;68282;42.698;23.350;2023-05-07T08:48:22;95657.88;;;17.67;49.46
78894;BME280;68282;42.698;23.350;2023-05-07T08:50:50;95659.78;;;17.71;49.55
78894;BME280;68282;42.698;23.350;2023-05-07T08:53:16;95654.56;;;17.75;49.01
78894;BME280;68282;42.698;23.350;2023-05-07T08:55:42;95655.91;;;17.93;49.94
78894;BME280;68282;42.698;23.350;2023-05-07T08:58:08;95655.94;;;18.03;49.37
78894;BME280;68282;42.698;23.350;2023-05-07T09:00:35;95652.88;;;18.15;49.18
78894;BME280;68282;42.698;23.350;2023-05-07T09:03:01;95645.97;;;18.23;47.85
78894;BME280;68282;42.698;23.350;2023-05-07T09:05:26;95644.00;;;18.39;46.34
78894;BME280;68282;42.698;23.350;2023-05-07T09:07:52;95643.72;;;18.41;45.05
78894;BME280;68282;42.698;23.350;2023-05-07T09:10:17;95632.69;;;18.46;45.88
78894;BME280;68282;42.698;23.350;2023-05-07T09:12:43;95637.03;;;18.57;46.03
78894;BME280;68282;42.698;23.350;2023-05-07T09:15:09;95627.63;;;18.63;45.91
78894;BME280;68282;42.698;23.350;2023-05-07T09:17:34;95632.03;;;18.69;44.61
78894;BME280;68282;42.698;23.350;2023-05-07T09:20:04;95621.50;;;18.77;44.27
78894;BME280;68282;42.698;23.350;2023-05-07T09:22:33;95620.16;;;18.74;44.04
78894;BME280;68282;42.698;23.350;2023-05-07T09:24:58;95623.66;;;18.90;44.97
78894;BME280;68282;42.698;23.350;2023-05-07T09:27:25;95627.78;;;18.98;44.72
78894;BME280;68282;42.698;23.350;2023-05-07T09:29:50;95613.63;;;19.10;42.98
78894;BME280;68282;42.698;23.350;2023-05-07T09:32:16;95616.38;;;19.15;42.80
78894;BME280;68282;42.698;23.350;2023-05-07T09:34:42;95606.00;;;19.36;41.21
78894;BME280;68282;42.698;23.350;2023-05-07T09:37:07;95604.63;;;19.39;42.32
78894;BME280;68282;42.698;23.350;2023-05-07T09:39:46;95601.16;;;19.52;40.05
78894;BME280;68282;42.698;23.350;2023-05-07T09:42:12;95600.69;;;19.45;41.05
78894;BME280;68282;42.698;23.350;2023-05-07T09:44:40;95602.03;;;19.47;41.60
78894;BME280;68282;42.698;23.350;2023-05-07T09:47:06;95601.91;;;19.63;41.67
78894;BME280;68282;42.698;23.350;2023-05-07T09:49:36;95589.38;;;19.76;40.53
78894;BME280;68282;42.698;23.350;2023-05-07T09:52:02;95583.75;;;19.91;40.74
78894;BME280;68282;42.698;23.350;2023-05-07T09:54:29;95586.09;;;20.03;39.88
78894;BME280;68282;42.698;23.350;2023-05-07T09:56:54;95589.91;;;20.07;38.58
78894;BME280;68282;42.698;23.350;2023-05-07T09:59:21;95582.63;;;20.17;39.17
78894;BME280;68282;42.698;23.350;2023-05-07T10:01:47;95583.34;;;20.28;39.69
78894;BME280;68282;42.698;23.350;2023-05-07T10:04:16;95581.56;;;20.37;37.55
78894;BME280;68282;42.698;23.350;2023-05-07T10:06:42;95574.31;;;20.41;38.11
78894;BME280;68282;42.698;23.350;2023-05-07T10:09:09;95577.63;;;20.43;36.69
78894;BME280;68282;42.698;23.350;2023-05-07T10:11:36;95577.94;;;20.42;37.22
78894;BME280;68282;42.698;23.350;2023-05-07T10:14:03;95569.16;;;20.59;36.99
78894;BME280;68282;42.698;23.350;2023-05-07T10:16:35;95572.19;;;20.57;37.11
78894;BME280;68282;42.698;23.350;2023-05-07T10:19:05;95560.53;;;20.60;36.06
78894;BME280;68282;42.698;23.350;2023-05-07T10:21:34;95558.16;;;20.78;36.71
78894;BME280;68282;42.698;23.350;2023-05-07T10:24:15;95562.91;;;20.91;36.11
78894;BME280;68282;42.698;23.350;2023-05-07T10:26:46;95555.88;;;20.99;36.15
78894;BME280;68282;42.698;23.350;2023-05-07T10:29:42;95554.91;;;21.09;36.47
78894;BME280;68282;42.698;23.350;2023-05-07T10:35:02;95542.50;;;21.06;36.17
78894;BME280;68282;42.698;23.350;2023-05-07T10:37:30;95541.00;;;20.95;35.74
78894;BME280;68282;42.698;23.350;2023-05-07T10:39:55;95542.31;;;20.83;34.51
78894;BME280;68282;42.698;23.350;2023-05-07T10:42:22;95537.28;;;20.66;34.25
78894;BME280;68282;42.698;23.350;2023-05-07T10:44:48;95537.00;;;20.87;34.02
78894;BME280;68282;42.698;23.350;2023-05-07T10:47:15;95530.94;;;21.04;33.45
78894;BME280;68282;42.698;23.350;2023-05-07T10:52:19;95523.78;;;21.36;32.54
78894;BME280;68282;42.698;23.350;2023-05-07T10:54:45;95523.59;;;21.46;32.97
78894;BME280;68282;42.698;23.350;2023-05-07T10:57:33;95523.78;;;21.69;34.14
78894;BME280;68282;42.698;23.350;2023-05-07T11:00:01;95516.41;;;21.78;32.09
78894;BME280;68282;42.698;23.350;2023-05-07T11:05:25;95519.69;;;22.08;32.21
78894;BME280;68282;42.698;23.350;2023-05-07T11:07:55;95524.09;;;22.23;31.69
78894;BME280;68282;42.698;23.350;2023-05-07T11:10:21;95526.03;;;22.37;32.19
78894;BME280;68282;42.698;23.350;2023-05-07T11:12:51;95522.25;;;22.19;31.26
78894;BME280;68282;42.698;23.350;2023-05-07T11:15:37;95514.47;;;22.21;31.39
78894;BME280;68282;42.698;23.350;2023-05-07T11:18:03;95514.75;;;22.33;31.53
78894;BME280;68282;42.698;23.350;2023-05-07T11:26:15;95509.63;;;22.41;28.93
78894;BME280;68282;42.698;23.350;2023-05-07T11:28:42;95505.75;;;22.42;27.77
78894;BME280;68282;42.698;23.350;2023-05-07T11:31:09;95504.78;;;22.60;29.96
78894;BME280;68282;42.698;23.350;2023-05-07T11:33:35;95500.63;;;22.85;29.33
78894;BME280;68282;42.698;23.350;2023-05-07T11:36:05;95500.88;;;22.98;28.75
78894;BME280;68282;42.698;23.350;2023-05-07T11:38:34;95494.38;;;23.03;28.95
78894;BME280;68282;42.698;23.350;2023-05-07T11:41:00;95496.38;;;23.25;27.54
78894;BME280;68282;42.698;23.350;2023-05-07T11:43:26;95497.25;;;23.34;26.73
78894;BME280;68282;42.698;23.350;2023-05-07T11:45:52;95478.69;;;23.43;27.01
78894;BME280;68282;42.698;23.350;2023-05-07T11:48:17;95479.94;;;23.60;26.92
78894;BME280;68282;42.698;23.350;2023-05-07T11:53:27;95489.06;;;23.60;26.94
78894;BME280;68282;42.698;23.350;2023-05-07T11:55:55;95489.13;;;23.69;26.08
78894;BME280;68282;42.698;23.350;2023-05-07T11:58:22;95474.31;;;23.83;25.91
78894;BME280;68282;42.698;23.350;2023-05-07T12:00:49;95484.06;;;24.03;26.42
78894;BME280;68282;42.698;23.350;2023-05-07T12:03:15;95487.03;;;24.15;25.37
78894;BME280;68282;42.698;23.350;2023-05-07T12:05:47;95479.56;;;24.24;26.21
78894;BME280;68282;42.698;23.350;2023-05-07T12:08:16;95476.16;;;24.36;26.04
78894;BME280;68282;42.698;23.350;2023-05-07T12:10:43;95470.13;;;24.52;25.87
78894;BME280;68282;42.698;23.350;2023-05-07T12:13:19;95466.84;;;24.59;25.70
78894;BME280;68282;42.698;23.350;2023-05-07T12:15:45;95475.16;;;24.32;25.45
78894;BME280;68282;42.698;23.350;2023-05-07T12:18:13;95469.31;;;24.51;26.26
78894;BME280;68282;42.698;23.350;2023-05-07T12:20:39;95461.13;;;24.64;24.78
78894;BME280;68282;42.698;23.350;2023-05-07T12:23:08;95456.41;;;24.55;24.74
78894;BME280;68282;42.698;23.350;2023-05-07T12:25:37;95461.28;;;24.50;24.54
78894;BME280;68282;42.698;23.350;2023-05-07T12:28:05;95456.41;;;24.55;25.21
78894;BME280;68282;42.698;23.350;2023-05-07T12:30:32;95447.56;;;24.62;24.26
78894;BME280;68282;42.698;23.350;2023-05-07T12:33:01;95452.50;;;24.74;24.46
78894;BME280;68282;42.698;23.350;2023-05-07T12:35:31;95450.22;;;24.76;23.85
78894;BME280;68282;42.698;23.350;2023-05-07T12:37:58;95443.31;;;24.47;23.15
78894;BME280;68282;42.698;23.350;2023-05-07T12:40:41;95437.44;;;24.58;24.21
78894;BME280;68282;42.698;23.350;2023-05-07T12:43:15;95423.03;;;24.73;25.79
78894;BME280;68282;42.698;23.350;2023-05-07T12:45:42;95434.50;;;24.72;23.29
78894;BME280;68282;42.698;23.350;2023-05-07T12:48:09;95437.44;;;24.75;24.51
78894;BME280;68282;42.698;23.350;2023-05-07T12:50:35;95427.97;;;24.76;25.30
78894;BME280;68282;42.698;23.350;2023-05-07T12:53:03;95426.63;;;24.82;24.74
78894;BME280;68282;42.698;23.350;2023-05-07T12:55:31;95422.19;;;24.64;23.61
78894;BME280;68282;42.698;23.350;2023-05-07T12:58:00;95417.63;;;24.59;24.62
78894;BME280;68282;42.698;23.350;2023-05-07T13:00:34;95413.88;;;24.64;24.64
78894;BME280;68282;42.698;23.350;2023-05-07T13:02:59;95411.56;;;24.66;25.29